createdAt,value
2019-05-01T00:00:33.396Z,11.30
2019-05-01T00:03:08.239Z,11.40
2019-05-01T00:05:45.299Z,11.50
2019-05-01T00:08:15.450Z,11.40
2019-05-01T00:10:45.009Z,11.40
2019-05-01T00:13:14.563Z,11.30
2019-05-01T00:15:44.827Z,11.20
2019-05-01T00:18:15.187Z,11.10
2019-05-01T00:20:44.729Z,11.20
2019-05-01T00:23:14.431Z,11.10
2019-05-01T00:25:44.689Z,10.90
2019-05-01T00:28:14.388Z,10.90
2019-05-01T00:30:44.360Z,11.20
2019-05-01T00:33:13.924Z,10.90
2019-05-01T00:35:43.571Z,11.00
2019-05-01T00:38:13.143Z,10.90
2019-05-01T00:40:42.709Z,11.10
2019-05-01T00:43:12.350Z,11.20
2019-05-01T00:45:41.918Z,11.20
2019-05-01T00:48:11.693Z,10.90
2019-05-01T00:50:41.248Z,10.70
2019-05-01T00:53:10.817Z,10.90
2019-05-01T00:55:42.135Z,10.90
2019-05-01T00:58:22.532Z,10.60
2019-05-01T01:01:09.570Z,10.30
2019-05-01T01:03:40.514Z,10.60
2019-05-01T01:06:10.594Z,10.90
2019-05-01T01:08:40.153Z,10.50
2019-05-01T01:11:09.707Z,10.50
2019-05-01T01:13:39.377Z,10.70
2019-05-01T01:16:08.959Z,10.70
2019-05-01T01:18:38.595Z,10.80
2019-05-01T01:21:08.241Z,10.90
2019-05-01T01:23:38.483Z,10.80
2019-05-01T01:26:08.298Z,10.20
2019-05-01T01:28:38.228Z,10.10
2019-05-01T01:31:07.866Z,10.10
2019-05-01T01:33:37.845Z,10.20
2019-05-01T01:36:07.433Z,10.40
2019-05-01T01:38:36.984Z,10.40
2019-05-01T01:41:06.983Z,10.50
2019-05-01T01:43:39.591Z,10.60
2019-05-01T01:46:17.297Z,10.50
2019-05-01T01:48:47.086Z,10.30
2019-05-01T01:51:17.312Z,10.20
2019-05-01T01:53:47.679Z,10.10
2019-05-01T01:56:18.142Z,10.00
2019-05-01T01:58:47.974Z,10.20
2019-05-01T02:01:29.125Z,10.10
2019-05-01T02:04:00.466Z,10.00
2019-05-01T02:06:30.171Z,9.90
2019-05-01T02:09:00.300Z,10.00
2019-05-01T02:11:30.390Z,9.80
2019-05-01T02:13:59.943Z,9.80
2019-05-01T02:16:30.856Z,9.70
2019-05-01T02:19:00.584Z,9.70
2019-05-01T02:21:30.155Z,9.60
2019-05-01T02:24:00.406Z,9.50
2019-05-01T02:26:32.272Z,9.70
2019-05-01T02:29:11.444Z,9.70
2019-05-01T02:31:43.473Z,9.50
2019-05-01T02:34:13.747Z,9.60
2019-05-01T02:36:47.070Z,9.50
2019-05-01T02:39:21.560Z,9.50
2019-05-01T02:41:55.025Z,9.70
2019-05-01T02:44:47.055Z,9.80
2019-05-01T02:47:21.795Z,9.70
2019-05-01T02:49:58.260Z,9.70
2019-05-01T02:52:35.815Z,9.70
2019-05-01T02:55:10.993Z,9.40
2019-05-01T02:57:43.104Z,9.30
2019-05-01T03:00:13.126Z,9.40
2019-05-01T03:02:43.317Z,9.60
2019-05-01T03:05:13.180Z,9.80
2019-05-01T03:07:43.941Z,9.80
2019-05-01T03:10:14.272Z,9.60
2019-05-01T03:12:48.379Z,9.70
2019-05-01T03:15:21.237Z,9.60
2019-05-01T03:17:56.249Z,9.70
2019-05-01T03:20:46.354Z,9.80
2019-05-01T03:23:24.676Z,9.70
2019-05-01T03:25:54.671Z,9.50
2019-05-01T03:28:24.852Z,9.50
2019-05-01T03:30:55.407Z,9.30
2019-05-01T03:33:26.315Z,9.20
2019-05-01T03:35:56.479Z,9.50
2019-05-01T03:38:26.398Z,9.70
2019-05-01T03:40:56.948Z,9.90
2019-05-01T03:43:27.603Z,10.00
2019-05-01T03:45:58.012Z,10.00
2019-05-01T03:48:28.505Z,10.00
2019-05-01T03:50:58.511Z,9.90
2019-05-01T03:53:28.486Z,9.80
2019-05-01T03:55:59.308Z,9.80
2019-05-01T03:58:29.398Z,9.80
2019-05-01T04:01:03.804Z,10.00
2019-05-01T04:03:41.264Z,10.20
2019-05-01T04:06:12.186Z,10.20
2019-05-01T04:08:42.082Z,10.10
2019-05-01T04:11:11.982Z,10.00
2019-05-01T04:13:42.768Z,9.80
2019-05-01T04:16:13.808Z,9.50
2019-05-01T04:18:43.594Z,9.40
2019-05-01T04:21:13.287Z,9.90
2019-05-01T04:23:44.214Z,10.00
2019-05-01T04:26:13.923Z,10.00
2019-05-01T04:28:47.922Z,10.20
2019-05-01T04:31:35.215Z,10.30
2019-05-01T04:34:07.751Z,10.20
2019-05-01T04:36:48.525Z,10.20
2019-05-01T04:39:18.787Z,10.20
2019-05-01T04:41:48.777Z,10.20
2019-05-01T04:44:18.414Z,10.20
2019-05-01T04:46:49.613Z,10.00
2019-05-01T04:49:20.095Z,10.00
2019-05-01T04:51:50.454Z,10.20
2019-05-01T04:54:21.372Z,10.30
2019-05-01T04:56:51.101Z,10.30
2019-05-01T04:59:21.319Z,10.20
2019-05-01T05:01:56.506Z,10.30
2019-05-01T05:04:25.502Z,10.40
2019-05-01T05:06:55.963Z,10.30
2019-05-01T05:09:46.973Z,10.50
2019-05-01T05:12:34.863Z,10.40
2019-05-01T05:15:18.130Z,10.40
2019-05-01T05:17:47.902Z,10.40
2019-05-01T05:20:18.164Z,10.30
2019-05-01T05:22:48.439Z,10.30
2019-05-01T05:25:19.200Z,10.30
2019-05-01T05:27:51.640Z,10.30
2019-05-01T05:30:24.254Z,10.10
2019-05-01T05:32:56.781Z,10.20
2019-05-01T05:35:30.067Z,10.30
2019-05-01T05:38:20.811Z,10.40
2019-05-01T05:40:51.774Z,10.40
2019-05-01T05:43:21.992Z,10.30
2019-05-01T05:45:52.197Z,9.90
2019-05-01T05:48:21.751Z,10.10
2019-05-01T05:51:13.063Z,10.20
2019-05-01T05:53:47.321Z,10.30
2019-05-01T05:56:22.363Z,10.40
2019-05-01T05:58:57.986Z,10.40
2019-05-01T06:01:49.289Z,10.40
2019-05-01T06:04:24.280Z,10.30
2019-05-01T06:07:00.271Z,10.30
2019-05-01T06:09:35.108Z,10.40
2019-05-01T06:12:21.769Z,10.50
2019-05-01T06:15:12.486Z,10.50
2019-05-01T06:17:52.595Z,10.40
2019-05-01T06:20:27.665Z,10.30
2019-05-01T06:23:10.730Z,10.20
2019-05-01T06:25:45.073Z,10.00
2019-05-01T06:28:15.533Z,10.20
2019-05-01T06:30:47.084Z,10.40
2019-05-01T06:33:16.590Z,10.60
2019-05-01T06:35:46.568Z,10.20
2019-05-01T06:38:18.211Z,10.40
2019-05-01T06:40:53.071Z,10.60
2019-05-01T06:43:28.397Z,10.50
2019-05-01T06:46:02.811Z,10.60
2019-05-01T06:48:34.016Z,10.80
2019-05-01T06:51:21.891Z,10.80
2019-05-01T06:53:51.531Z,10.70
2019-05-01T06:56:21.122Z,10.70
2019-05-01T06:58:55.248Z,10.80
2019-05-01T07:01:24.018Z,10.90
2019-05-01T07:04:03.613Z,10.90
2019-05-01T07:06:31.134Z,10.90
2019-05-01T07:08:58.983Z,10.90
2019-05-01T07:11:29.855Z,10.70
2019-05-01T07:13:59.516Z,10.70
2019-05-01T07:16:33.074Z,10.70
2019-05-01T07:19:05.830Z,10.70
2019-05-01T07:21:34.351Z,10.80
2019-05-01T07:24:05.307Z,10.80
2019-05-01T07:26:34.856Z,10.80
2019-05-01T07:29:09.903Z,10.90
2019-05-01T07:31:40.901Z,11.00
2019-05-01T07:34:16.670Z,10.90
2019-05-01T07:36:45.575Z,10.80
2019-05-01T07:39:14.702Z,10.70
2019-05-01T07:41:45.516Z,10.90
2019-05-01T07:44:16.933Z,10.70
2019-05-01T07:46:56.048Z,10.80
2019-05-01T07:49:57.292Z,10.90
2019-05-01T07:52:29.177Z,11.00
2019-05-01T07:55:00.245Z,11.00
2019-05-01T07:57:34.460Z,10.90
2019-05-01T08:00:08.143Z,10.80
2019-05-01T08:02:35.384Z,10.80
2019-05-01T08:05:09.921Z,10.90
2019-05-01T08:07:38.230Z,10.70
2019-05-01T08:10:09.205Z,10.80
2019-05-01T08:12:38.764Z,10.80
2019-05-01T08:15:09.005Z,10.70
2019-05-01T08:17:40.275Z,11.00
2019-05-01T08:20:16.756Z,11.00
2019-05-01T08:22:46.659Z,10.90
2019-05-01T08:25:16.259Z,10.90
2019-05-01T08:27:57.998Z,10.90
2019-05-01T08:30:48.034Z,11.00
2019-05-01T08:33:34.556Z,11.00
2019-05-01T08:36:06.833Z,10.60
2019-05-01T08:38:35.803Z,10.80
2019-05-01T08:41:07.187Z,10.70
2019-05-01T08:43:38.118Z,11.00
2019-05-01T08:46:11.830Z,11.20
2019-05-01T08:48:42.822Z,11.30
2019-05-01T08:51:12.802Z,11.30
2019-05-01T08:53:42.362Z,11.30
2019-05-01T08:56:12.003Z,11.40
2019-05-01T08:58:44.764Z,11.50
2019-05-01T09:01:15.085Z,11.50
2019-05-01T09:03:45.233Z,11.20
2019-05-01T09:06:14.796Z,11.60
2019-05-01T09:08:44.654Z,11.70
2019-05-01T09:11:14.226Z,11.70
2019-05-01T09:13:43.875Z,11.60
2019-05-01T09:16:13.520Z,11.40
2019-05-01T09:18:43.268Z,11.30
2019-05-01T09:21:12.819Z,11.50
2019-05-01T09:23:46.255Z,11.70
2019-05-01T09:26:20.048Z,11.70
2019-05-01T09:28:51.315Z,12.00
2019-05-01T09:31:22.512Z,12.10
2019-05-01T09:33:52.073Z,12.20
2019-05-01T09:36:21.786Z,12.30
2019-05-01T09:38:51.342Z,12.30
2019-05-01T09:41:20.967Z,12.20
2019-05-01T09:43:50.558Z,12.20
2019-05-01T09:46:20.835Z,12.20
2019-05-01T09:48:50.765Z,12.20
2019-05-01T09:51:21.964Z,12.20
2019-05-01T09:54:09.358Z,12.10
2019-05-01T09:56:38.394Z,12.00
2019-05-01T09:59:08.202Z,12.00
2019-05-01T10:01:38.003Z,11.90
2019-05-01T10:04:07.561Z,11.90
2019-05-01T10:06:37.423Z,11.90
2019-05-01T10:09:12.060Z,12.20
2019-05-01T10:11:41.849Z,12.30
2019-05-01T10:14:11.668Z,12.60
2019-05-01T10:16:41.235Z,12.70
2019-05-01T10:19:11.503Z,12.30
2019-05-01T10:21:41.665Z,12.30
2019-05-01T10:24:11.360Z,12.40
2019-05-01T10:26:42.686Z,12.30
2019-05-01T10:29:15.677Z,12.80
2019-05-01T10:31:55.937Z,12.60
2019-05-01T10:34:28.163Z,12.70
2019-05-01T10:36:57.854Z,12.40
2019-05-01T10:39:30.114Z,12.90
2019-05-01T10:41:58.723Z,13.00
2019-05-01T10:44:28.437Z,13.10
2019-05-01T10:46:58.110Z,13.00
2019-05-01T10:49:27.669Z,13.60
2019-05-01T10:51:57.735Z,13.80
2019-05-01T10:54:27.325Z,13.20
2019-05-01T10:56:58.811Z,13.40
2019-05-01T10:59:28.359Z,14.00
2019-05-01T11:01:59.622Z,14.00
2019-05-01T11:04:29.328Z,14.20
2019-05-01T11:06:59.114Z,14.30
2019-05-01T11:09:28.777Z,14.70
2019-05-01T11:11:58.330Z,15.00
2019-05-01T11:14:28.002Z,15.60
2019-05-01T11:16:57.940Z,17.00
2019-05-01T11:19:29.618Z,16.90
2019-05-01T11:21:59.669Z,16.50
2019-05-01T11:24:29.237Z,17.30
2019-05-01T11:26:58.805Z,16.80
2019-05-01T11:29:28.525Z,17.80
2019-05-01T11:32:00.374Z,18.10
2019-05-01T11:34:31.582Z,18.90
2019-05-01T11:37:08.545Z,18.90
2019-05-01T11:39:42.197Z,20.90
2019-05-01T11:42:13.309Z,21.90
2019-05-01T11:44:43.590Z,22.30
2019-05-01T11:47:13.156Z,21.80
2019-05-01T11:49:42.853Z,22.20
2019-05-01T11:52:12.418Z,21.10
2019-05-01T11:54:42.064Z,22.00
2019-05-01T11:57:11.636Z,20.70
2019-05-01T11:59:41.207Z,20.60
2019-05-01T12:02:10.857Z,20.80
2019-05-01T12:04:40.490Z,21.20
2019-05-01T12:07:10.750Z,22.20
2019-05-01T12:09:40.477Z,20.00
2019-05-01T12:12:14.090Z,20.00
2019-05-01T12:15:18.516Z,19.30
2019-05-01T12:17:49.631Z,18.50
2019-05-01T12:20:21.703Z,18.30
2019-05-01T12:22:51.720Z,18.10
2019-05-01T12:25:21.417Z,18.20
2019-05-01T12:27:51.146Z,18.20
2019-05-01T12:30:21.525Z,18.40
2019-05-01T12:32:51.128Z,18.20
2019-05-01T12:35:20.734Z,18.30
2019-05-01T12:37:51.158Z,18.40
2019-05-01T12:40:22.607Z,17.70
2019-05-01T12:42:52.568Z,18.20
2019-05-01T12:45:22.299Z,17.60
2019-05-01T12:47:53.505Z,17.70
2019-05-01T12:50:23.312Z,17.60
2019-05-01T12:52:58.419Z,17.50
2019-05-01T12:55:46.665Z,16.80
2019-05-01T12:58:16.435Z,16.70
2019-05-01T13:00:56.191Z,16.80
2019-05-01T13:03:26.237Z,16.70
2019-05-01T13:05:56.383Z,16.80
2019-05-01T13:08:26.013Z,16.80
2019-05-01T13:10:56.365Z,17.00
2019-05-01T13:13:26.052Z,17.00
2019-05-01T13:15:55.621Z,16.70
2019-05-01T13:18:25.181Z,16.60
2019-05-01T13:20:54.944Z,16.90
2019-05-01T13:23:24.724Z,16.70
2019-05-01T13:25:55.935Z,16.90
2019-05-01T13:28:45.421Z,17.00
2019-05-01T13:31:22.409Z,16.90
2019-05-01T13:33:52.217Z,17.00
2019-05-01T13:36:22.370Z,17.00
2019-05-01T13:38:51.918Z,17.30
2019-05-01T13:41:21.557Z,17.10
2019-05-01T13:43:51.199Z,17.20
2019-05-01T13:46:20.775Z,17.10
2019-05-01T13:48:50.516Z,17.30
2019-05-01T13:51:20.393Z,17.20
2019-05-01T13:53:49.950Z,17.40
2019-05-01T13:56:19.609Z,17.00
2019-05-01T13:58:49.251Z,17.30
2019-05-01T14:01:19.329Z,17.30
2019-05-01T14:03:49.333Z,17.20
2019-05-01T14:06:18.900Z,17.30
2019-05-01T14:08:48.486Z,17.40
2019-05-01T14:11:18.330Z,17.20
2019-05-01T14:13:47.892Z,17.20
2019-05-01T14:16:17.787Z,17.10
2019-05-01T14:18:47.483Z,17.20
2019-05-01T14:21:25.521Z,17.10
2019-05-01T14:24:08.961Z,17.10
2019-05-01T14:26:38.836Z,17.30
2019-05-01T14:29:08.392Z,17.20
2019-05-01T14:31:38.293Z,17.50
2019-05-01T14:34:08.580Z,17.20
2019-05-01T14:36:38.149Z,17.40
2019-05-01T14:39:08.571Z,17.40
2019-05-01T14:41:38.299Z,17.60
2019-05-01T14:44:07.871Z,17.50
2019-05-01T14:46:39.061Z,17.60
2019-05-01T14:49:08.826Z,17.60
2019-05-01T14:51:38.375Z,17.70
2019-05-01T14:54:08.239Z,17.60
2019-05-01T14:56:38.421Z,17.50
2019-05-01T14:59:08.074Z,17.50
2019-05-01T15:01:38.070Z,17.50
2019-05-01T15:04:07.637Z,17.30
2019-05-01T15:06:37.207Z,17.00
2019-05-01T15:09:09.440Z,16.90
2019-05-01T15:11:39.946Z,17.00
2019-05-01T15:14:11.321Z,17.10
2019-05-01T15:16:51.254Z,17.20
2019-05-01T15:19:23.626Z,17.40
2019-05-01T15:21:53.203Z,17.40
2019-05-01T15:24:22.773Z,17.30
2019-05-01T15:26:52.452Z,17.10
2019-05-01T15:29:22.020Z,17.00
2019-05-01T15:31:51.560Z,17.00
2019-05-01T15:34:21.456Z,16.90
2019-05-01T15:36:51.384Z,16.90
2019-05-01T15:39:28.316Z,17.10
2019-05-01T15:42:05.321Z,16.90
2019-05-01T15:44:36.769Z,16.90
2019-05-01T15:47:06.344Z,16.90
2019-05-01T15:49:35.926Z,17.10
2019-05-01T15:52:05.816Z,17.00
2019-05-01T15:54:35.414Z,16.80
2019-05-01T15:57:06.005Z,16.80
2019-05-01T15:59:35.621Z,16.80
2019-05-01T16:02:05.325Z,16.70
2019-05-01T16:04:34.943Z,16.50
2019-05-01T16:07:04.620Z,16.40
2019-05-01T16:09:34.982Z,16.20
2019-05-01T16:12:06.237Z,16.30
2019-05-01T16:14:36.179Z,16.40
2019-05-01T16:17:05.828Z,16.30
2019-05-01T16:19:35.423Z,16.20
2019-05-01T16:22:05.530Z,16.40
2019-05-01T16:24:35.116Z,16.50
2019-05-01T16:27:05.819Z,16.60
2019-05-01T16:29:35.373Z,16.40
2019-05-01T16:32:06.682Z,16.20
2019-05-01T16:34:41.709Z,16.20
2019-05-01T16:37:11.246Z,16.10
2019-05-01T16:39:55.438Z,16.10
2019-05-01T16:42:26.766Z,16.10
2019-05-01T16:44:56.339Z,16.20
2019-05-01T16:47:25.900Z,16.20
2019-05-01T16:49:55.585Z,16.20
2019-05-01T16:52:27.871Z,16.00
2019-05-01T16:54:59.418Z,16.10
2019-05-01T16:57:33.249Z,16.20
2019-05-01T17:00:03.519Z,16.20
2019-05-01T17:02:43.726Z,16.20
2019-05-01T17:05:20.086Z,16.00
2019-05-01T17:08:07.229Z,16.00
2019-05-01T17:10:47.417Z,15.90
2019-05-01T17:13:17.743Z,15.80
2019-05-01T17:15:51.595Z,16.00
2019-05-01T17:18:21.790Z,15.80
2019-05-01T17:20:51.606Z,15.70
2019-05-01T17:23:21.167Z,15.60
2019-05-01T17:25:50.847Z,15.60
2019-05-01T17:28:20.477Z,15.60
2019-05-01T17:30:51.993Z,15.60
2019-05-01T17:33:22.126Z,15.60
2019-05-01T17:35:52.088Z,15.60
2019-05-01T17:38:24.777Z,15.60
2019-05-01T17:40:54.577Z,15.60
2019-05-01T17:43:24.134Z,15.50
2019-05-01T17:45:54.725Z,15.40
2019-05-01T17:48:28.883Z,15.30
2019-05-01T17:51:03.807Z,15.40
2019-05-01T17:53:36.634Z,15.30
2019-05-01T17:56:10.226Z,15.00
2019-05-01T17:58:38.507Z,14.90
2019-05-01T18:01:21.765Z,14.90
2019-05-01T18:03:58.805Z,15.00
2019-05-01T18:06:31.572Z,14.80
2019-05-01T18:09:03.088Z,14.80
2019-05-01T18:11:32.898Z,14.70
2019-05-01T18:14:05.424Z,14.70
2019-05-01T18:16:34.731Z,14.70
2019-05-01T18:19:08.337Z,14.60
2019-05-01T18:21:38.221Z,14.60
2019-05-01T18:24:26.018Z,14.40
2019-05-01T18:27:00.000Z,14.30
2019-05-01T18:29:35.507Z,14.40
2019-05-01T18:32:10.089Z,14.30
2019-05-01T18:34:39.587Z,14.20
2019-05-01T18:37:10.926Z,14.20
2019-05-01T18:39:45.224Z,14.20
2019-05-01T18:42:17.075Z,14.10
2019-05-01T18:44:47.526Z,14.10
2019-05-01T18:47:18.047Z,14.00
2019-05-01T18:49:48.464Z,14.00
2019-05-01T18:52:18.491Z,14.00
2019-05-01T18:54:48.275Z,13.90
2019-05-01T18:57:17.906Z,13.90
2019-05-01T18:59:47.546Z,13.90
2019-05-01T19:02:20.443Z,13.90
2019-05-01T19:04:48.482Z,13.90
2019-05-01T19:07:18.868Z,13.80
2019-05-01T19:09:48.572Z,13.80
2019-05-01T19:12:18.209Z,13.80
2019-05-01T19:14:47.854Z,13.70
2019-05-01T19:17:17.696Z,13.70
2019-05-01T19:19:47.364Z,13.60
2019-05-01T19:22:17.729Z,13.60
2019-05-01T19:24:47.633Z,13.60
2019-05-01T19:27:19.090Z,13.40
2019-05-01T19:29:48.926Z,13.10
2019-05-01T19:32:19.881Z,13.00
2019-05-01T19:34:49.466Z,13.10
2019-05-01T19:37:21.835Z,13.20
2019-05-01T19:39:53.829Z,13.30
2019-05-01T19:42:23.666Z,13.40
2019-05-01T19:44:56.418Z,13.30
2019-05-01T19:47:25.409Z,13.20
2019-05-01T19:49:55.238Z,12.90
2019-05-01T19:52:24.796Z,12.80
2019-05-01T19:54:54.357Z,12.90
2019-05-01T19:57:24.115Z,13.00
2019-05-01T19:59:54.005Z,13.00
2019-05-01T20:02:24.122Z,13.00
2019-05-01T20:04:53.884Z,13.10
2019-05-01T20:07:23.693Z,13.10
2019-05-01T20:09:57.055Z,13.20
2019-05-01T20:12:24.807Z,13.20
2019-05-01T20:14:54.643Z,13.00
2019-05-01T20:17:24.283Z,12.90
2019-05-01T20:19:53.851Z,12.90
2019-05-01T20:22:23.634Z,12.80
2019-05-01T20:24:53.205Z,12.80
2019-05-01T20:27:22.766Z,12.70
2019-05-01T20:29:52.549Z,12.60
2019-05-01T20:32:26.343Z,12.60
2019-05-01T20:34:54.063Z,12.60
2019-05-01T20:37:24.157Z,12.50
2019-05-01T20:39:53.734Z,12.30
2019-05-01T20:42:23.480Z,12.20
2019-05-01T20:45:03.979Z,11.90
2019-05-01T20:47:35.023Z,11.90
2019-05-01T20:49:55.907Z,11.80
2019-05-01T20:52:25.687Z,11.70
2019-05-01T20:54:55.266Z,11.80
2019-05-01T20:57:26.483Z,11.80
2019-05-01T20:59:56.314Z,11.90
2019-05-01T21:02:26.011Z,11.80
2019-05-01T21:04:55.356Z,11.80
2019-05-01T21:07:35.395Z,11.90
2019-05-01T21:10:08.176Z,11.90
2019-05-01T21:12:37.819Z,12.00
2019-05-01T21:15:08.520Z,12.10
2019-05-01T21:17:38.205Z,12.10
2019-05-01T21:20:07.893Z,12.20
2019-05-01T21:22:37.605Z,12.10
2019-05-01T21:25:07.579Z,12.10
2019-05-01T21:27:37.159Z,12.10
2019-05-01T21:30:11.209Z,12.00
2019-05-01T21:32:40.751Z,11.80
2019-05-01T21:35:10.628Z,11.80
2019-05-01T21:37:40.315Z,11.70
2019-05-01T21:40:10.107Z,11.60
2019-05-01T21:42:40.316Z,11.70
2019-05-01T21:45:10.118Z,11.70
2019-05-01T21:47:40.123Z,11.70
2019-05-01T21:50:09.779Z,11.70
2019-05-01T21:52:39.461Z,11.70
2019-05-01T21:55:09.367Z,11.60
2019-05-01T21:57:40.771Z,11.50
2019-05-01T22:00:11.766Z,11.50
2019-05-01T22:02:41.555Z,11.40
2019-05-01T22:05:13.437Z,11.30
2019-05-01T22:07:43.090Z,11.40
2019-05-01T22:10:13.163Z,11.30
2019-05-01T22:12:44.104Z,11.10
2019-05-01T22:15:21.578Z,11.10
2019-05-01T22:17:52.801Z,10.90
2019-05-01T22:20:27.075Z,10.90
2019-05-01T22:23:04.330Z,10.90
2019-05-01T22:25:36.069Z,10.70
2019-05-01T22:28:07.602Z,10.50
2019-05-01T22:30:42.224Z,10.50
2019-05-01T22:33:10.462Z,10.60
2019-05-01T22:35:43.215Z,10.60
2019-05-01T22:38:12.774Z,10.70
2019-05-01T22:41:06.024Z,10.80
2019-05-01T22:43:27.409Z,10.80
2019-05-01T22:46:01.561Z,10.80
2019-05-01T22:48:28.417Z,10.70
2019-05-01T22:50:59.784Z,10.60
2019-05-01T22:53:29.337Z,10.60
2019-05-01T22:56:02.199Z,10.60
2019-05-01T22:58:30.672Z,10.50
2019-05-01T23:01:01.274Z,10.50
2019-05-01T23:03:40.473Z,10.50
2019-05-01T23:06:07.907Z,10.30
2019-05-01T23:08:37.988Z,10.40
2019-05-01T23:11:19.195Z,10.40
2019-05-01T23:13:40.681Z,10.50
2019-05-01T23:16:10.419Z,10.50
2019-05-01T23:18:39.969Z,10.50
2019-05-01T23:21:14.479Z,10.50
2019-05-01T23:23:42.740Z,10.20
2019-05-01T23:26:16.549Z,10.20
2019-05-01T23:28:44.378Z,10.20
2019-05-01T23:31:14.799Z,10.30
2019-05-01T23:33:45.624Z,10.40
2019-05-01T23:36:23.310Z,10.40
2019-05-01T23:38:51.356Z,10.30
2019-05-01T23:41:24.874Z,10.20
2019-05-01T23:43:58.329Z,10.00
2019-05-01T23:46:26.466Z,10.10
2019-05-01T23:48:56.389Z,10.10
2019-05-01T23:51:28.520Z,10.10
2019-05-01T23:53:58.409Z,10.00
2019-05-01T23:56:31.029Z,10.00
2019-05-01T23:59:00.835Z,9.90
